NORTHEAST SUFFOLK  -  Rip Current Statement Rip Current Statement        NORTHERN NASSAU  -  Rip Current Statement Rip Current Statement        NORTHERN QUEENS  -  Rip Current Statement Rip Current Statement     Air Quality Alert Air Quality Alert        NORTHWEST SUFFOLK  -  Rip Current Statement Rip Current Statement        SOUTHEAST SUFFOLK  -  Rip Current Statement Rip Current Statement        SOUTHERN NASSAU  -  Rip Current Statement Rip Current Statement        SOUTHERN QUEENS  -  Rip Current Statement Rip Current Statement     Air Quality Alert Air Quality Alert        SOUTHWEST SUFFOLK  -  Rip Current Statement Rip Current Statement      

Active alerts

Northern Queens
  Details for Northern Queens Rip Current Statement  +1 additional alert
Southern Queens
  Details for Southern Queens Rip Current Statement  +1 additional alert
Northern Nassau
  Details for Northern Nassau Rip Current Statement
Southern Nassau
  Details for Southern Nassau Rip Current Statement
Northwest Suffolk
  Details for Northwest Suffolk Rip Current Statement
Southwest Suffolk
  Details for Southwest Suffolk Rip Current Statement
Northeast Suffolk
  Details for Northeast Suffolk Rip Current Statement
Southeast Suffolk
  Details for Southeast Suffolk Rip Current Statement


WXM80 ListenWXM80 Stop

You find our weather info also at:

UK Metoffice

WeatherCloud

Weather Underground

Northeastern Weather Network

AWEKAS

Citizen Weather Observer Program (CWOP)

HAMweather, WeatherForYou, PWS Weather


Weather Underground History page Text

Daily Summary for April 1, 2017 Units:  Both    English   Metric
« Previous Day
Next Day »
Daily Weekly Monthly Yearly Custom
  High: Low: Average:
Temperature: 44.7 °F /  7.1 °C 37.0 °F /  2.8 °C 40.5 °F /  4.7 °C
Dew Point: 39.1 °F /  3.9 °C 36.2 °F /  2.3 °C 37.4 °F /  3 °C
Humidity: 97 % 76 % 89 %
Wind Speed: 21.8 mph /  35.1 km/h - 8.4 mph /  13.5 km/h
Wind Gust: 28.8 mph /  46.3 km/h - -
Wind:- - East
Pressure: 30.00 in /  1015.8 hPa 29.61 in /  1002.6 hPa -
Precipitation: 0.00 in /  0 mm    
Historical Graphs
 
 
Tabular Data for April 1, 2017
Time Temperature Dew Point Pressure Wind Wind Speed Wind Gust Humidity Rainfall Rate (Hourly)
00:02 37.6 °F /  3.1 °C 36.8 °F /  2.7 °C 29.71 in /  1006 hPa ENE 13.4 mph /  21.6 km/h 18.4 mph /  29.6 km/h 97 % 0.01 in /  0.25 mm
00:03 37.6 °F /  3.1 °C 36.8 °F /  2.7 °C 29.71 in /  1006 hPa East 15.3 mph /  24.6 km/h 20.0 mph /  32.2 km/h 97 % 0.01 in /  0.25 mm
00:08 37.6 °F /  3.1 °C 36.8 °F /  2.7 °C 29.70 in /  1005.6 hPa ENE 15.7 mph /  25.3 km/h 20.7 mph /  33.3 km/h 97 % 0.01 in /  0.25 mm
00:13 37.6 °F /  3.1 °C 36.8 °F /  2.7 °C 29.71 in /  1006 hPa ENE 17.4 mph /  28 km/h 22.0 mph /  35.4 km/h 97 % 0.01 in /  0.25 mm
00:18 37.6 °F /  3.1 °C 36.8 °F /  2.7 °C 29.71 in /  1006 hPa NE 14.9 mph /  24 km/h 20.7 mph /  33.3 km/h 97 % 0.00 in /  0 mm
00:23 37.7 °F /  3.2 °C 36.9 °F /  2.7 °C 29.71 in /  1006 hPa ENE 16.0 mph /  25.7 km/h 20.7 mph /  33.3 km/h 97 % 0.00 in /  0 mm
00:28 37.7 °F /  3.2 °C 36.9 °F /  2.7 °C 29.70 in /  1005.6 hPa ENE 15.7 mph /  25.3 km/h 24.2 mph /  38.9 km/h 97 % 0.00 in /  0 mm
00:33 37.8 °F /  3.2 °C 37.0 °F /  2.8 °C 29.70 in /  1005.6 hPa East 16.6 mph /  26.7 km/h 21.9 mph /  35.2 km/h 97 % 0.00 in /  0 mm
00:38 37.8 °F /  3.2 °C 37.0 °F /  2.8 °C 29.69 in /  1005.3 hPa ENE 15.5 mph /  24.9 km/h 20.7 mph /  33.3 km/h 97 % 0.00 in /  0 mm
00:43 37.8 °F /  3.2 °C 37.0 °F /  2.8 °C 29.69 in /  1005.3 hPa ENE 16.3 mph /  26.2 km/h 23.0 mph /  37 km/h 97 % 0.00 in /  0 mm
00:48 37.8 °F /  3.2 °C 37.0 °F /  2.8 °C 29.69 in /  1005.3 hPa ENE 14.1 mph /  22.7 km/h 17.3 mph /  27.8 km/h 97 % 0.00 in /  0 mm
00:53 37.8 °F /  3.2 °C 37.0 °F /  2.8 °C 29.68 in /  1005 hPa NE 18.6 mph /  29.9 km/h 23.0 mph /  37 km/h 97 % 0.00 in /  0 mm
00:58 37.9 °F /  3.3 °C 37.1 °F /  2.8 °C 29.68 in /  1005 hPa ESE 16.5 mph /  26.6 km/h 23.0 mph /  37 km/h 97 % 0.00 in /  0 mm
01:03 37.9 °F /  3.3 °C 37.1 °F /  2.8 °C 29.67 in /  1004.6 hPa ENE 18.4 mph /  29.6 km/h 23.0 mph /  37 km/h 97 % 0.01 in /  0.25 mm
01:08 37.9 °F /  3.3 °C 37.1 °F /  2.8 °C 29.67 in /  1004.6 hPa ENE 18.0 mph /  29 km/h 24.0 mph /  38.6 km/h 97 % 0.01 in /  0.25 mm
01:13 38.0 °F /  3.3 °C 37.2 °F /  2.9 °C 29.67 in /  1004.6 hPa ENE 17.0 mph /  27.4 km/h 22.0 mph /  35.4 km/h 97 % 0.01 in /  0.25 mm
01:18 38.0 °F /  3.3 °C 37.2 °F /  2.9 °C 29.67 in /  1004.6 hPa ENE 16.8 mph /  27 km/h 23.0 mph /  37 km/h 97 % 0.01 in /  0.25 mm
01:23 38.0 °F /  3.3 °C 37.2 °F /  2.9 °C 29.67 in /  1004.6 hPa NE 19.7 mph /  31.7 km/h 28.8 mph /  46.3 km/h 97 % 0.01 in /  0.25 mm
01:28 38.0 °F /  3.3 °C 37.2 °F /  2.9 °C 29.67 in /  1004.6 hPa ENE 16.7 mph /  26.9 km/h 21.9 mph /  35.2 km/h 97 % 0.01 in /  0.25 mm
01:33 38.1 °F /  3.4 °C 37.3 °F /  2.9 °C 29.66 in /  1004.3 hPa East 19.2 mph /  30.9 km/h 26.0 mph /  41.8 km/h 97 % 0.01 in /  0.25 mm
01:38 38.0 °F /  3.3 °C 37.2 °F /  2.9 °C 29.66 in /  1004.3 hPa NE 18.9 mph /  30.4 km/h 24.2 mph /  38.9 km/h 97 % 0.01 in /  0.25 mm
01:43 38.1 °F /  3.4 °C 37.3 °F /  2.9 °C 29.66 in /  1004.3 hPa ENE 18.2 mph /  29.3 km/h 24.2 mph /  38.9 km/h 97 % 0.01 in /  0.25 mm
01:48 38.1 °F /  3.4 °C 37.3 °F /  2.9 °C 29.66 in /  1004.3 hPa ENE 14.0 mph /  22.5 km/h 26.5 mph /  42.6 km/h 97 % 0.01 in /  0.25 mm
01:53 38.2 °F /  3.4 °C 37.4 °F /  3 °C 29.66 in /  1004.3 hPa ENE 21.8 mph /  35.1 km/h 26.5 mph /  42.6 km/h 97 % 0.01 in /  0.25 mm
01:58 38.2 °F /  3.4 °C 37.4 °F /  3 °C 29.66 in /  1004.3 hPa NE 15.9 mph /  25.6 km/h 23.0 mph /  37 km/h 97 % 0.01 in /  0.25 mm
02:03 38.2 °F /  3.4 °C 37.4 °F /  3 °C 29.66 in /  1004.3 hPa ENE 16.7 mph /  26.9 km/h 20.7 mph /  33.3 km/h 97 % 0.00 in /  0 mm
02:08 38.2 °F /  3.4 °C 37.4 °F /  3 °C 29.65 in /  1003.9 hPa ENE 16.5 mph /  26.6 km/h 23.0 mph /  37 km/h 97 % 0.00 in /  0 mm
02:13 38.1 °F /  3.4 °C 37.3 °F /  2.9 °C 29.65 in /  1003.9 hPa East 17.9 mph /  28.8 km/h 22.0 mph /  35.4 km/h 97 % 0.00 in /  0 mm
02:18 38.1 °F /  3.4 °C 37.3 °F /  2.9 °C 29.64 in /  1003.6 hPa ENE 15.8 mph /  25.4 km/h 23.0 mph /  37 km/h 97 % 0.00 in /  0 mm
02:23 38.0 °F /  3.3 °C 37.0 °F /  2.8 °C 29.64 in /  1003.6 hPa ENE 15.9 mph /  25.6 km/h 26.5 mph /  42.6 km/h 96 % 0.00 in /  0 mm
02:28 38.1 °F /  3.4 °C 37.1 °F /  2.8 °C 29.63 in /  1003.3 hPa ENE 16.5 mph /  26.6 km/h 23.0 mph /  37 km/h 96 % 0.00 in /  0 mm
02:34 38.1 °F /  3.4 °C 37.1 °F /  2.8 °C 29.63 in /  1003.3 hPa East 18.1 mph /  29.1 km/h 24.2 mph /  38.9 km/h 96 % 0.00 in /  0 mm
02:39 38.1 °F /  3.4 °C 37.1 °F /  2.8 °C 29.63 in /  1003.3 hPa ENE 15.9 mph /  25.6 km/h 23.0 mph /  37 km/h 96 % 0.00 in /  0 mm
02:44 38.1 °F /  3.4 °C 37.1 °F /  2.8 °C 29.62 in /  1002.9 hPa ENE 21.3 mph /  34.3 km/h 26.5 mph /  42.6 km/h 96 % 0.00 in /  0 mm
02:49 38.1 °F /  3.4 °C 37.3 °F /  2.9 °C 29.62 in /  1002.9 hPa ENE 19.2 mph /  30.9 km/h 23.0 mph /  37 km/h 97 % 0.00 in /  0 mm
02:54 38.1 °F /  3.4 °C 37.1 °F /  2.8 °C 29.62 in /  1002.9 hPa ENE 18.2 mph /  29.3 km/h 23.0 mph /  37 km/h 96 % 0.00 in /  0 mm
02:59 38.1 °F /  3.4 °C 37.1 °F /  2.8 °C 29.62 in /  1002.9 hPa East 18.6 mph /  29.9 km/h 26.5 mph /  42.6 km/h 96 % 0.00 in /  0 mm
03:04 38.1 °F /  3.4 °C 37.1 °F /  2.8 °C 29.62 in /  1002.9 hPa ENE 15.6 mph /  25.1 km/h 19.6 mph /  31.5 km/h 96 % 0.00 in /  0 mm
03:09 38.0 °F /  3.3 °C 37.0 °F /  2.8 °C 29.62 in /  1002.9 hPa ENE 17.8 mph /  28.6 km/h 24.2 mph /  38.9 km/h 96 % 0.00 in /  0 mm
03:14 38.0 °F /  3.3 °C 37.0 °F /  2.8 °C 29.61 in /  1002.6 hPa ENE 16.6 mph /  26.7 km/h 24.2 mph /  38.9 km/h 96 % 0.00 in /  0 mm
03:19 37.9 °F /  3.3 °C 36.9 °F /  2.7 °C 29.61 in /  1002.6 hPa ENE 14.8 mph /  23.8 km/h 23.0 mph /  37 km/h 96 % 0.00 in /  0 mm
03:24 37.9 °F /  3.3 °C 36.9 °F /  2.7 °C 29.61 in /  1002.6 hPa ENE 14.6 mph /  23.5 km/h 24.2 mph /  38.9 km/h 96 % 0.00 in /  0 mm
03:29 37.9 °F /  3.3 °C 36.9 °F /  2.7 °C 29.61 in /  1002.6 hPa ENE 15.5 mph /  24.9 km/h 19.6 mph /  31.5 km/h 96 % 0.00 in /  0 mm
03:34 37.9 °F /  3.3 °C 36.9 °F /  2.7 °C 29.62 in /  1002.9 hPa East 13.7 mph /  22 km/h 22.0 mph /  35.4 km/h 96 % 0.00 in /  0 mm
03:39 37.9 °F /  3.3 °C 37.1 °F /  2.8 °C 29.62 in /  1002.9 hPa ENE 11.9 mph /  19.2 km/h 18.0 mph /  29 km/h 97 % 0.00 in /  0 mm
03:44 37.9 °F /  3.3 °C 37.1 °F /  2.8 °C 29.62 in /  1002.9 hPa ENE 11.9 mph /  19.2 km/h 17.0 mph /  27.4 km/h 97 % 0.00 in /  0 mm
03:49 37.8 °F /  3.2 °C 37.0 °F /  2.8 °C 29.62 in /  1002.9 hPa NE 10.6 mph /  17.1 km/h 17.3 mph /  27.8 km/h 97 % 0.00 in /  0 mm
03:54 37.8 °F /  3.2 °C 37.0 °F /  2.8 °C 29.62 in /  1002.9 hPa NE 8.5 mph /  13.7 km/h 16.1 mph /  25.9 km/h 97 % 0.00 in /  0 mm
03:59 37.8 °F /  3.2 °C 37.0 °F /  2.8 °C 29.62 in /  1002.9 hPa NNE 6.6 mph /  10.6 km/h 12.7 mph /  20.4 km/h 97 % 0.01 in /  0.25 mm
04:04 37.8 °F /  3.2 °C 37.0 °F /  2.8 °C 29.62 in /  1002.9 hPa ENE 7.3 mph /  11.7 km/h 11.5 mph /  18.5 km/h 97 % 0.01 in /  0.25 mm
04:09 37.7 °F /  3.2 °C 36.9 °F /  2.7 °C 29.61 in /  1002.6 hPa ENE 7.3 mph /  11.7 km/h 15.0 mph /  24.1 km/h 97 % 0.01 in /  0.25 mm
04:14 37.7 °F /  3.2 °C 36.9 °F /  2.7 °C 29.61 in /  1002.6 hPa NE 7.3 mph /  11.7 km/h 9.2 mph /  14.8 km/h 97 % 0.01 in /  0.25 mm
04:19 37.6 °F /  3.1 °C 36.8 °F /  2.7 °C 29.61 in /  1002.6 hPa NE 8.6 mph /  13.8 km/h 11.5 mph /  18.5 km/h 97 % 0.01 in /  0.25 mm
04:24 37.5 °F /  3.1 °C 36.7 °F /  2.6 °C 29.61 in /  1002.6 hPa NNE 5.2 mph /  8.4 km/h 11.0 mph /  17.7 km/h 97 % 0.01 in /  0.25 mm
04:29 37.5 °F /  3.1 °C 36.7 °F /  2.6 °C 29.61 in /  1002.6 hPa NE 7.1 mph /  11.4 km/h 10.4 mph /  16.7 km/h 97 % 0.01 in /  0.25 mm
04:34 37.4 °F /  3 °C 36.6 °F /  2.6 °C 29.62 in /  1002.9 hPa NNE 6.2 mph /  10 km/h 10.0 mph /  16.1 km/h 97 % 0.01 in /  0.25 mm
04:39 37.4 °F /  3 °C 36.6 °F /  2.6 °C 29.62 in /  1002.9 hPa NNE 8.6 mph /  13.8 km/h 13.8 mph /  22.2 km/h 97 % 0.01 in /  0.25 mm
04:44 37.4 °F /  3 °C 36.6 °F /  2.6 °C 29.62 in /  1002.9 hPa NNE 10.3 mph /  16.6 km/h 17.3 mph /  27.8 km/h 97 % 0.01 in /  0.25 mm
04:49 37.3 °F /  2.9 °C 36.5 °F /  2.5 °C 29.63 in /  1003.3 hPa NE 7.6 mph /  12.2 km/h 13.8 mph /  22.2 km/h 97 % 0.01 in /  0.25 mm
04:54 37.3 °F /  2.9 °C 36.5 °F /  2.5 °C 29.62 in /  1002.9 hPa NNE 8.0 mph /  12.9 km/h 19.6 mph /  31.5 km/h 97 % 0.01 in /  0.25 mm
04:59 37.3 °F /  2.9 °C 36.5 °F /  2.5 °C 29.63 in /  1003.3 hPa ENE 9.6 mph /  15.4 km/h 16.1 mph /  25.9 km/h 97 % 0.00 in /  0 mm
05:04 37.2 °F /  2.9 °C 36.4 °F /  2.4 °C 29.63 in /  1003.3 hPa NE 7.0 mph /  11.3 km/h 11.5 mph /  18.5 km/h 97 % 0.00 in /  0 mm
05:09 37.2 °F /  2.9 °C 36.4 °F /  2.4 °C 29.62 in /  1002.9 hPa NNE 9.2 mph /  14.8 km/h 16.1 mph /  25.9 km/h 97 % 0.00 in /  0 mm
05:14 37.2 °F /  2.9 °C 36.4 °F /  2.4 °C 29.63 in /  1003.3 hPa ENE 7.1 mph /  11.4 km/h 11.5 mph /  18.5 km/h 97 % 0.00 in /  0 mm
05:15 37.2 °F /  2.9 °C 36.4 °F /  2.4 °C 29.62 in /  1002.9 hPa NNE 7.2 mph /  11.6 km/h 13.0 mph /  20.9 km/h 97 % 0.00 in /  0 mm
05:20 37.1 °F /  2.8 °C 36.3 °F /  2.4 °C 29.63 in /  1003.3 hPa NE 8.1 mph /  13 km/h 10.4 mph /  16.7 km/h 97 % 0.00 in /  0 mm
05:25 37.1 °F /  2.8 °C 36.3 °F /  2.4 °C 29.63 in /  1003.3 hPa NNE 8.5 mph /  13.7 km/h 13.8 mph /  22.2 km/h 97 % 0.00 in /  0 mm
05:30 37.1 °F /  2.8 °C 36.3 °F /  2.4 °C 29.63 in /  1003.3 hPa NNE 8.6 mph /  13.8 km/h 12.7 mph /  20.4 km/h 97 % 0.00 in /  0 mm
05:35 37.1 °F /  2.8 °C 36.3 °F /  2.4 °C 29.63 in /  1003.3 hPa NE 12.5 mph /  20.1 km/h 18.4 mph /  29.6 km/h 97 % 0.00 in /  0 mm
05:40 37.1 °F /  2.8 °C 36.3 °F /  2.4 °C 29.63 in /  1003.3 hPa NNE 11.0 mph /  17.7 km/h 18.4 mph /  29.6 km/h 97 % 0.00 in /  0 mm
05:45 37.1 °F /  2.8 °C 36.3 °F /  2.4 °C 29.64 in /  1003.6 hPa NNE 10.6 mph /  17.1 km/h 16.1 mph /  25.9 km/h 97 % 0.00 in /  0 mm
05:50 37.0 °F /  2.8 °C 36.2 °F /  2.3 °C 29.64 in /  1003.6 hPa NE 11.4 mph /  18.3 km/h 18.4 mph /  29.6 km/h 97 % 0.00 in /  0 mm
05:55 37.0 °F /  2.8 °C 36.2 °F /  2.3 °C 29.64 in /  1003.6 hPa NNE 12.8 mph /  20.6 km/h 15.0 mph /  24.1 km/h 97 % 0.00 in /  0 mm
06:00 37.0 °F /  2.8 °C 36.2 °F /  2.3 °C 29.64 in /  1003.6 hPa NNW 13.6 mph /  21.9 km/h 19.0 mph /  30.6 km/h 97 % 0.00 in /  0 mm
06:05 37.0 °F /  2.8 °C 36.2 °F /  2.3 °C 29.64 in /  1003.6 hPa NNE 11.3 mph /  18.2 km/h 23.0 mph /  37 km/h 97 % 0.00 in /  0 mm
06:10 37.1 °F /  2.8 °C 36.3 °F /  2.4 °C 29.64 in /  1003.6 hPa NNE 13.0 mph /  20.9 km/h 16.1 mph /  25.9 km/h 97 % 0.01 in /  0.25 mm
06:15 37.1 °F /  2.8 °C 36.3 °F /  2.4 °C 29.65 in /  1003.9 hPa NNE 11.4 mph /  18.3 km/h 17.3 mph /  27.8 km/h 97 % 0.01 in /  0.25 mm
06:20 37.1 °F /  2.8 °C 36.3 °F /  2.4 °C 29.65 in /  1003.9 hPa NE 10.8 mph /  17.4 km/h 20.7 mph /  33.3 km/h 97 % 0.01 in /  0.25 mm
06:25 37.1 °F /  2.8 °C 36.3 °F /  2.4 °C 29.65 in /  1003.9 hPa NNE 11.6 mph /  18.7 km/h 18.4 mph /  29.6 km/h 97 % 0.01 in /  0.25 mm
06:30 37.1 °F /  2.8 °C 36.3 °F /  2.4 °C 29.65 in /  1003.9 hPa NNE 11.2 mph /  18 km/h 18.4 mph /  29.6 km/h 97 % 0.01 in /  0.25 mm
06:35 37.1 °F /  2.8 °C 36.3 °F /  2.4 °C 29.65 in /  1003.9 hPa ENE 8.1 mph /  13 km/h 16.1 mph /  25.9 km/h 97 % 0.01 in /  0.25 mm
06:40 37.1 °F /  2.8 °C 36.3 °F /  2.4 °C 29.65 in /  1003.9 hPa North 14.1 mph /  22.7 km/h 17.3 mph /  27.8 km/h 97 % 0.01 in /  0.25 mm
06:45 37.1 °F /  2.8 °C 36.3 °F /  2.4 °C 29.65 in /  1003.9 hPa NNE 10.1 mph /  16.3 km/h 13.8 mph /  22.2 km/h 97 % 0.01 in /  0.25 mm
06:50 37.1 °F /  2.8 °C 36.3 °F /  2.4 °C 29.65 in /  1003.9 hPa NE 12.7 mph /  20.4 km/h 18.4 mph /  29.6 km/h 97 % 0.01 in /  0.25 mm
06:55 37.1 °F /  2.8 °C 36.3 °F /  2.4 °C 29.65 in /  1003.9 hPa NE 11.2 mph /  18 km/h 17.3 mph /  27.8 km/h 97 % 0.01 in /  0.25 mm
07:00 37.1 °F /  2.8 °C 36.3 °F /  2.4 °C 29.66 in /  1004.3 hPa NNE 11.2 mph /  18 km/h 19.6 mph /  31.5 km/h 97 % 0.01 in /  0.25 mm
07:05 37.2 °F /  2.9 °C 36.4 °F /  2.4 °C 29.66 in /  1004.3 hPa NE 9.2 mph /  14.8 km/h 17.3 mph /  27.8 km/h 97 % 0.01 in /  0.25 mm
07:09 37.2 °F /  2.9 °C 36.4 °F /  2.4 °C 29.66 in /  1004.3 hPa NNE 10.5 mph /  16.9 km/h 13.0 mph /  20.9 km/h 97 % 0.00 in /  0 mm
07:14 37.2 °F /  2.9 °C 36.4 °F /  2.4 °C 29.66 in /  1004.3 hPa NE 10.7 mph /  17.2 km/h 16.1 mph /  25.9 km/h 97 % 0.00 in /  0 mm
07:19 37.2 °F /  2.9 °C 36.4 °F /  2.4 °C 29.67 in /  1004.6 hPa NNW 7.3 mph /  11.7 km/h 12.0 mph /  19.3 km/h 97 % 0.00 in /  0 mm
07:24 37.3 °F /  2.9 °C 36.5 °F /  2.5 °C 29.67 in /  1004.6 hPa NNE 10.0 mph /  16.1 km/h 16.1 mph /  25.9 km/h 97 % 0.00 in /  0 mm
07:29 37.3 °F /  2.9 °C 36.3 °F /  2.4 °C 29.68 in /  1005 hPa North 8.3 mph /  13.4 km/h 11.5 mph /  18.5 km/h 96 % 0.00 in /  0 mm
07:34 37.3 °F /  2.9 °C 36.3 °F /  2.4 °C 29.68 in /  1005 hPa NNE 6.8 mph /  10.9 km/h 12.0 mph /  19.3 km/h 96 % 0.00 in /  0 mm
07:39 37.4 °F /  3 °C 36.4 °F /  2.4 °C 29.68 in /  1005 hPa NNE 8.2 mph /  13.2 km/h 11.5 mph /  18.5 km/h 96 % 0.00 in /  0 mm
07:44 37.4 °F /  3 °C 36.4 °F /  2.4 °C 29.68 in /  1005 hPa NNE 10.1 mph /  16.3 km/h 13.8 mph /  22.2 km/h 96 % 0.00 in /  0 mm
07:49 37.5 °F /  3.1 °C 36.5 °F /  2.5 °C 29.68 in /  1005 hPa NNE 7.6 mph /  12.2 km/h 10.4 mph /  16.7 km/h 96 % 0.00 in /  0 mm
07:54 37.5 °F /  3.1 °C 36.5 °F /  2.5 °C 29.68 in /  1005 hPa NNE 8.3 mph /  13.4 km/h 11.5 mph /  18.5 km/h 96 % 0.00 in /  0 mm
07:59 37.6 °F /  3.1 °C 36.6 °F /  2.6 °C 29.69 in /  1005.3 hPa NNE 6.9 mph /  11.1 km/h 11.5 mph /  18.5 km/h 96 % 0.00 in /  0 mm
08:04 37.6 °F /  3.1 °C 36.6 °F /  2.6 °C 29.69 in /  1005.3 hPa NNE 10.9 mph /  17.5 km/h 15.0 mph /  24.1 km/h 96 % 0.00 in /  0 mm
08:09 37.6 °F /  3.1 °C 36.6 °F /  2.6 °C 29.69 in /  1005.3 hPa North 10.0 mph /  16.1 km/h 10.4 mph /  16.7 km/h 96 % 0.00 in /  0 mm
08:14 37.6 °F /  3.1 °C 36.6 °F /  2.6 °C 29.69 in /  1005.3 hPa NNW 7.9 mph /  12.7 km/h 12.7 mph /  20.4 km/h 96 % 0.00 in /  0 mm
08:19 37.6 °F /  3.1 °C 36.6 °F /  2.6 °C 29.69 in /  1005.3 hPa NE 10.2 mph /  16.4 km/h 12.7 mph /  20.4 km/h 96 % 0.00 in /  0 mm
08:24 37.7 °F /  3.2 °C 36.7 °F /  2.6 °C 29.69 in /  1005.3 hPa NE 9.9 mph /  15.9 km/h 15.0 mph /  24.1 km/h 96 % 0.00 in /  0 mm
08:29 37.8 °F /  3.2 °C 36.8 °F /  2.7 °C 29.69 in /  1005.3 hPa NNE 8.4 mph /  13.5 km/h 13.8 mph /  22.2 km/h 96 % 0.00 in /  0 mm
08:34 37.9 °F /  3.3 °C 36.9 °F /  2.7 °C 29.69 in /  1005.3 hPa NNE 8.0 mph /  12.9 km/h 13.8 mph /  22.2 km/h 96 % 0.00 in /  0 mm
08:39 37.9 °F /  3.3 °C 36.9 °F /  2.7 °C 29.69 in /  1005.3 hPa NNE 8.3 mph /  13.4 km/h 18.4 mph /  29.6 km/h 96 % 0.00 in /  0 mm
08:44 38.0 °F /  3.3 °C 37.0 °F /  2.8 °C 29.69 in /  1005.3 hPa North 6.7 mph /  10.8 km/h 10.4 mph /  16.7 km/h 96 % 0.00 in /  0 mm
08:49 38.0 °F /  3.3 °C 37.0 °F /  2.8 °C 29.69 in /  1005.3 hPa North 8.8 mph /  14.2 km/h 12.0 mph /  19.3 km/h 96 % 0.00 in /  0 mm
08:54 38.1 °F /  3.4 °C 36.8 °F /  2.7 °C 29.70 in /  1005.6 hPa NW 9.4 mph /  15.1 km/h 11.5 mph /  18.5 km/h 95 % 0.01 in /  0.25 mm
08:59 38.1 °F /  3.4 °C 36.8 °F /  2.7 °C 29.70 in /  1005.6 hPa NNW 8.0 mph /  12.9 km/h 16.1 mph /  25.9 km/h 95 % 0.01 in /  0.25 mm
09:04 38.2 °F /  3.4 °C 36.9 °F /  2.7 °C 29.70 in /  1005.6 hPa NNE 10.0 mph /  16.1 km/h 17.3 mph /  27.8 km/h 95 % 0.01 in /  0.25 mm
09:09 38.4 °F /  3.6 °C 37.1 °F /  2.8 °C 29.70 in /  1005.6 hPa NNE 10.7 mph /  17.2 km/h 13.0 mph /  20.9 km/h 95 % 0.01 in /  0.25 mm
09:14 38.6 °F /  3.7 °C 37.0 °F /  2.8 °C 29.71 in /  1006 hPa NNE 7.2 mph /  11.6 km/h 16.1 mph /  25.9 km/h 94 % 0.01 in /  0.25 mm
09:19 38.7 °F /  3.7 °C 37.1 °F /  2.8 °C 29.71 in /  1006 hPa NNE 8.1 mph /  13 km/h 11.5 mph /  18.5 km/h 94 % 0.01 in /  0.25 mm
09:24 38.7 °F /  3.7 °C 37.1 °F /  2.8 °C 29.71 in /  1006 hPa NNE 7.5 mph /  12.1 km/h 11.5 mph /  18.5 km/h 94 % 0.01 in /  0.25 mm
09:29 38.8 °F /  3.8 °C 36.9 °F /  2.7 °C 29.71 in /  1006 hPa NNE 8.8 mph /  14.2 km/h 16.1 mph /  25.9 km/h 93 % 0.01 in /  0.25 mm
09:34 38.9 °F /  3.8 °C 37.0 °F /  2.8 °C 29.71 in /  1006 hPa NNE 9.8 mph /  15.8 km/h 13.8 mph /  22.2 km/h 93 % 0.01 in /  0.25 mm
09:40 39.1 °F /  3.9 °C 37.2 °F /  2.9 °C 29.72 in /  1006.3 hPa North 5.9 mph /  9.5 km/h 11.5 mph /  18.5 km/h 93 % 0.01 in /  0.25 mm
09:45 39.2 °F /  4 °C 37.3 °F /  2.9 °C 29.72 in /  1006.3 hPa North 9.4 mph /  15.1 km/h 13.8 mph /  22.2 km/h 93 % 0.01 in /  0.25 mm
09:50 39.3 °F /  4.1 °C 37.4 °F /  3 °C 29.72 in /  1006.3 hPa NNE 8.6 mph /  13.8 km/h 15.0 mph /  24.1 km/h 93 % 0.01 in /  0.25 mm
09:55 39.5 °F /  4.2 °C 37.4 °F /  3 °C 29.72 in /  1006.3 hPa North 9.6 mph /  15.4 km/h 17.3 mph /  27.8 km/h 92 % 0.00 in /  0 mm
10:00 39.6 °F /  4.2 °C 37.5 °F /  3.1 °C 29.73 in /  1006.7 hPa NE 11.4 mph /  18.3 km/h 18.4 mph /  29.6 km/h 92 % 0.00 in /  0 mm
10:05 39.8 °F /  4.3 °C 37.7 °F /  3.2 °C 29.73 in /  1006.7 hPa North 9.3 mph /  15 km/h 16.1 mph /  25.9 km/h 92 % 0.00 in /  0 mm
10:10 40.0 °F /  4.4 °C 37.6 °F /  3.1 °C 29.73 in /  1006.7 hPa North 9.0 mph /  14.5 km/h 11.5 mph /  18.5 km/h 91 % 0.00 in /  0 mm
10:15 40.1 °F /  4.5 °C 37.7 °F /  3.2 °C 29.73 in /  1006.7 hPa North 9.3 mph /  15 km/h 13.8 mph /  22.2 km/h 91 % 0.00 in /  0 mm
10:17 40.2 °F /  4.6 °C 37.8 °F /  3.2 °C 29.73 in /  1006.7 hPa NE 7.3 mph /  11.7 km/h 16.1 mph /  25.9 km/h 91 % 0.00 in /  0 mm
10:22 40.2 °F /  4.6 °C 37.8 °F /  3.2 °C 29.73 in /  1006.7 hPa NNE 9.7 mph /  15.6 km/h 16.1 mph /  25.9 km/h 91 % 0.00 in /  0 mm
10:27 40.3 °F /  4.6 °C 37.6 °F /  3.1 °C 29.74 in /  1007 hPa NNE 8.4 mph /  13.5 km/h 16.0 mph /  25.7 km/h 90 % 0.00 in /  0 mm
10:32 40.4 °F /  4.7 °C 37.7 °F /  3.2 °C 29.74 in /  1007 hPa NNE 8.3 mph /  13.4 km/h 11.5 mph /  18.5 km/h 90 % 0.00 in /  0 mm
10:37 40.6 °F /  4.8 °C 37.9 °F /  3.3 °C 29.74 in /  1007 hPa NNW 9.2 mph /  14.8 km/h 13.0 mph /  20.9 km/h 90 % 0.00 in /  0 mm
10:42 40.7 °F /  4.8 °C 38.0 °F /  3.3 °C 29.73 in /  1006.7 hPa NNE 10.1 mph /  16.3 km/h 15.0 mph /  24.1 km/h 90 % 0.00 in /  0 mm
10:47 40.9 °F /  4.9 °C 38.2 °F /  3.4 °C 29.73 in /  1006.7 hPa NNE 10.0 mph /  16.1 km/h 16.0 mph /  25.7 km/h 90 % 0.00 in /  0 mm
10:52 41.2 °F /  5.1 °C 38.5 °F /  3.6 °C 29.74 in /  1007 hPa North 9.0 mph /  14.5 km/h 17.0 mph /  27.4 km/h 90 % 0.00 in /  0 mm
10:53 41.2 °F /  5.1 °C 38.5 °F /  3.6 °C 29.74 in /  1007 hPa NE 6.7 mph /  10.8 km/h 11.5 mph /  18.5 km/h 90 % 0.00 in /  0 mm
10:58 41.4 °F /  5.2 °C 38.4 °F /  3.6 °C 29.74 in /  1007 hPa NNE 11.1 mph /  17.9 km/h 16.1 mph /  25.9 km/h 89 % 0.00 in /  0 mm
11:03 41.6 °F /  5.3 °C 38.6 °F /  3.7 °C 29.74 in /  1007 hPa NE 10.6 mph /  17.1 km/h 16.1 mph /  25.9 km/h 89 % 0.00 in /  0 mm
11:08 41.9 °F /  5.5 °C 38.9 °F /  3.8 °C 29.74 in /  1007 hPa NNE 7.8 mph /  12.6 km/h 10.4 mph /  16.7 km/h 89 % 0.00 in /  0 mm
11:13 42.1 °F /  5.6 °C 38.8 °F /  3.8 °C 29.74 in /  1007 hPa NNE 9.9 mph /  15.9 km/h 12.0 mph /  19.3 km/h 88 % 0.00 in /  0 mm
11:18 42.4 °F /  5.8 °C 39.1 °F /  3.9 °C 29.75 in /  1007.3 hPa NNW 8.8 mph /  14.2 km/h 17.3 mph /  27.8 km/h 88 % 0.00 in /  0 mm
11:23 42.5 °F /  5.8 °C 38.9 °F /  3.8 °C 29.75 in /  1007.3 hPa NNE 7.6 mph /  12.2 km/h 11.5 mph /  18.5 km/h 87 % 0.01 in /  0.25 mm
11:28 42.7 °F /  5.9 °C 39.1 °F /  3.9 °C 29.75 in /  1007.3 hPa NNE 9.0 mph /  14.5 km/h 13.0 mph /  20.9 km/h 87 % 0.01 in /  0.25 mm
11:33 42.7 °F /  5.9 °C 38.8 °F /  3.8 °C 29.75 in /  1007.3 hPa North 7.4 mph /  11.9 km/h 13.8 mph /  22.2 km/h 86 % 0.01 in /  0.25 mm
11:38 42.8 °F /  6 °C 38.9 °F /  3.8 °C 29.75 in /  1007.3 hPa North 9.4 mph /  15.1 km/h 12.0 mph /  19.3 km/h 86 % 0.01 in /  0.25 mm
11:39 42.8 °F /  6 °C 38.9 °F /  3.8 °C 29.75 in /  1007.3 hPa North 9.6 mph /  15.4 km/h 13.8 mph /  22.2 km/h 86 % 0.01 in /  0.25 mm
11:44 42.9 °F /  6.1 °C 39.0 °F /  3.9 °C 29.75 in /  1007.3 hPa NNW 8.3 mph /  13.4 km/h 13.0 mph /  20.9 km/h 86 % 0.01 in /  0.25 mm
11:49 43.0 °F /  6.1 °C 39.1 °F /  3.9 °C 29.75 in /  1007.3 hPa NNW 8.1 mph /  13 km/h 17.3 mph /  27.8 km/h 86 % 0.01 in /  0.25 mm
11:54 43.0 °F /  6.1 °C 38.5 °F /  3.6 °C 29.75 in /  1007.3 hPa NNE 9.6 mph /  15.4 km/h 13.8 mph /  22.2 km/h 84 % 0.01 in /  0.25 mm
11:59 43.1 °F /  6.2 °C 38.6 °F /  3.7 °C 29.75 in /  1007.3 hPa North 10.6 mph /  17.1 km/h 17.3 mph /  27.8 km/h 84 % 0.01 in /  0.25 mm
12:04 43.2 °F /  6.2 °C 38.7 °F /  3.7 °C 29.75 in /  1007.3 hPa NE 11.3 mph /  18.2 km/h 16.1 mph /  25.9 km/h 84 % 0.01 in /  0.25 mm
12:05 43.2 °F /  6.2 °C 38.4 °F /  3.6 °C 29.75 in /  1007.3 hPa NNE 12.0 mph /  19.3 km/h 17.3 mph /  27.8 km/h 83 % 0.01 in /  0.25 mm
12:10 43.2 °F /  6.2 °C 38.4 °F /  3.6 °C 29.75 in /  1007.3 hPa North 8.9 mph /  14.3 km/h 15.0 mph /  24.1 km/h 83 % 0.01 in /  0.25 mm
12:15 43.3 °F /  6.3 °C 38.5 °F /  3.6 °C 29.75 in /  1007.3 hPa North 9.8 mph /  15.8 km/h 12.7 mph /  20.4 km/h 83 % 0.01 in /  0.25 mm
12:20 43.2 °F /  6.2 °C 38.4 °F /  3.6 °C 29.76 in /  1007.7 hPa North 9.0 mph /  14.5 km/h 12.7 mph /  20.4 km/h 83 % 0.00 in /  0 mm
12:25 43.3 °F /  6.3 °C 38.5 °F /  3.6 °C 29.76 in /  1007.7 hPa NE 7.6 mph /  12.2 km/h 11.0 mph /  17.7 km/h 83 % 0.00 in /  0 mm
12:30 43.3 °F /  6.3 °C 38.5 °F /  3.6 °C 29.76 in /  1007.7 hPa NNE 5.9 mph /  9.5 km/h 11.5 mph /  18.5 km/h 83 % 0.00 in /  0 mm
12:35 43.2 °F /  6.2 °C 38.4 °F /  3.6 °C 29.76 in /  1007.7 hPa NNE 9.2 mph /  14.8 km/h 18.4 mph /  29.6 km/h 83 % 0.00 in /  0 mm
12:40 43.1 °F /  6.2 °C 38.3 °F /  3.5 °C 29.76 in /  1007.7 hPa NNE 9.4 mph /  15.1 km/h 13.0 mph /  20.9 km/h 83 % 0.00 in /  0 mm
12:45 43.2 °F /  6.2 °C 38.4 °F /  3.6 °C 29.77 in /  1008 hPa North 6.4 mph /  10.3 km/h 15.0 mph /  24.1 km/h 83 % 0.00 in /  0 mm
12:50 43.3 °F /  6.3 °C 38.2 °F /  3.4 °C 29.77 in /  1008 hPa NNE 4.7 mph /  7.6 km/h 10.4 mph /  16.7 km/h 82 % 0.00 in /  0 mm
12:55 43.3 °F /  6.3 °C 38.2 °F /  3.4 °C 29.77 in /  1008 hPa NNW 7.0 mph /  11.3 km/h 15.0 mph /  24.1 km/h 82 % 0.00 in /  0 mm
13:00 43.3 °F /  6.3 °C 38.2 °F /  3.4 °C 29.77 in /  1008 hPa NNW 5.9 mph /  9.5 km/h 10.0 mph /  16.1 km/h 82 % 0.00 in /  0 mm
13:05 43.3 °F /  6.3 °C 37.9 °F /  3.3 °C 29.77 in /  1008 hPa NNW 9.9 mph /  15.9 km/h 15.0 mph /  24.1 km/h 81 % 0.00 in /  0 mm
13:11 43.4 °F /  6.3 °C 38.0 °F /  3.3 °C 29.78 in /  1008.4 hPa NNE 8.2 mph /  13.2 km/h 13.8 mph /  22.2 km/h 81 % 0.00 in /  0 mm
13:16 43.4 °F /  6.3 °C 38.0 °F /  3.3 °C 29.78 in /  1008.4 hPa NNE 6.0 mph /  9.7 km/h 10.4 mph /  16.7 km/h 81 % 0.00 in /  0 mm
13:21 43.4 °F /  6.3 °C 38.0 °F /  3.3 °C 29.78 in /  1008.4 hPa North 7.6 mph /  12.2 km/h 11.5 mph /  18.5 km/h 81 % 0.00 in /  0 mm
13:26 43.5 °F /  6.4 °C 37.7 °F /  3.2 °C 29.77 in /  1008 hPa North 7.7 mph /  12.4 km/h 12.7 mph /  20.4 km/h 80 % 0.00 in /  0 mm
13:31 43.6 °F /  6.4 °C 37.8 °F /  3.2 °C 29.78 in /  1008.4 hPa NNE 9.7 mph /  15.6 km/h 13.0 mph /  20.9 km/h 80 % 0.00 in /  0 mm
13:36 43.8 °F /  6.6 °C 38.0 °F /  3.3 °C 29.78 in /  1008.4 hPa NNE 6.3 mph /  10.1 km/h 11.5 mph /  18.5 km/h 80 % 0.00 in /  0 mm
13:41 43.9 °F /  6.6 °C 37.8 °F /  3.2 °C 29.78 in /  1008.4 hPa NNE 6.3 mph /  10.1 km/h 11.5 mph /  18.5 km/h 79 % 0.00 in /  0 mm
13:46 43.9 °F /  6.6 °C 37.8 °F /  3.2 °C 29.79 in /  1008.7 hPa North 7.7 mph /  12.4 km/h 10.4 mph /  16.7 km/h 79 % 0.00 in /  0 mm
13:51 44.0 °F /  6.7 °C 37.9 °F /  3.3 °C 29.78 in /  1008.4 hPa North 7.0 mph /  11.3 km/h 11.5 mph /  18.5 km/h 79 % 0.00 in /  0 mm
13:56 44.1 °F /  6.7 °C 38.0 °F /  3.3 °C 29.78 in /  1008.4 hPa North 8.8 mph /  14.2 km/h 12.7 mph /  20.4 km/h 79 % 0.00 in /  0 mm
14:01 44.2 °F /  6.8 °C 38.1 °F /  3.4 °C 29.78 in /  1008.4 hPa NNE 6.7 mph /  10.8 km/h 13.0 mph /  20.9 km/h 79 % 0.00 in /  0 mm
14:06 44.4 °F /  6.9 °C 38.3 °F /  3.5 °C 29.78 in /  1008.4 hPa NNE 6.7 mph /  10.8 km/h 11.5 mph /  18.5 km/h 79 % 0.00 in /  0 mm
14:11 44.6 °F /  7 °C 38.2 °F /  3.4 °C 29.77 in /  1008 hPa NNE 8.2 mph /  13.2 km/h 12.7 mph /  20.4 km/h 78 % 0.00 in /  0 mm
14:16 44.7 °F /  7.1 °C 37.9 °F /  3.3 °C 29.78 in /  1008.4 hPa NE 7.8 mph /  12.6 km/h 13.8 mph /  22.2 km/h 77 % 0.00 in /  0 mm
14:21 44.6 °F /  7 °C 38.2 °F /  3.4 °C 29.78 in /  1008.4 hPa North 5.9 mph /  9.5 km/h 9.2 mph /  14.8 km/h 78 % 0.00 in /  0 mm
14:26 44.6 °F /  7 °C 37.5 °F /  3.1 °C 29.78 in /  1008.4 hPa ENE 10.4 mph /  16.7 km/h 13.8 mph /  22.2 km/h 76 % 0.01 in /  0.25 mm
14:31 44.6 °F /  7 °C 37.8 °F /  3.2 °C 29.78 in /  1008.4 hPa NE 8.0 mph /  12.9 km/h 10.4 mph /  16.7 km/h 77 % 0.01 in /  0.25 mm
14:35 44.6 °F /  7 °C 37.5 °F /  3.1 °C 29.79 in /  1008.7 hPa NE 8.6 mph /  13.8 km/h 11.5 mph /  18.5 km/h 76 % 0.01 in /  0.25 mm
14:40 44.5 °F /  6.9 °C 37.4 °F /  3 °C 29.79 in /  1008.7 hPa NNE 7.1 mph /  11.4 km/h 11.5 mph /  18.5 km/h 76 % 0.01 in /  0.25 mm
14:45 44.4 °F /  6.9 °C 37.6 °F /  3.1 °C 29.79 in /  1008.7 hPa North 5.6 mph /  9 km/h 12.7 mph /  20.4 km/h 77 % 0.01 in /  0.25 mm
14:51 44.3 °F /  6.8 °C 37.5 °F /  3.1 °C 29.79 in /  1008.7 hPa NE 8.0 mph /  12.9 km/h 10.4 mph /  16.7 km/h 77 % 0.01 in /  0.25 mm
14:56 44.3 °F /  6.8 °C 37.5 °F /  3.1 °C 29.80 in /  1009 hPa North 4.5 mph /  7.2 km/h 8.1 mph /  13 km/h 77 % 0.01 in /  0.25 mm
15:01 44.2 °F /  6.8 °C 37.1 °F /  2.8 °C 29.80 in /  1009 hPa NNW 8.2 mph /  13.2 km/h 11.5 mph /  18.5 km/h 76 % 0.01 in /  0.25 mm
15:06 44.2 °F /  6.8 °C 37.4 °F /  3 °C 29.80 in /  1009 hPa North 5.0 mph /  8 km/h 8.1 mph /  13 km/h 77 % 0.01 in /  0.25 mm
15:11 44.1 °F /  6.7 °C 37.3 °F /  2.9 °C 29.81 in /  1009.4 hPa NNE 6.9 mph /  11.1 km/h 9.2 mph /  14.8 km/h 77 % 0.01 in /  0.25 mm
15:16 44.0 °F /  6.7 °C 37.3 °F /  2.9 °C 29.81 in /  1009.4 hPa NNE 4.8 mph /  7.7 km/h 8.1 mph /  13 km/h 77 % 0.01 in /  0.25 mm
15:21 44.0 °F /  6.7 °C 37.6 °F /  3.1 °C 29.81 in /  1009.4 hPa NNW 5.8 mph /  9.3 km/h 9.0 mph /  14.5 km/h 78 % 0.01 in /  0.25 mm
15:26 44.0 °F /  6.7 °C 37.3 °F /  2.9 °C 29.82 in /  1009.7 hPa North 3.9 mph /  6.3 km/h 10.4 mph /  16.7 km/h 77 % 0.00 in /  0 mm
15:31 43.9 °F /  6.6 °C 37.5 °F /  3.1 °C 29.82 in /  1009.7 hPa North 8.0 mph /  12.9 km/h 11.5 mph /  18.5 km/h 78 % 0.00 in /  0 mm
15:36 43.8 °F /  6.6 °C 37.4 °F /  3 °C 29.82 in /  1009.7 hPa North 7.0 mph /  11.3 km/h 11.5 mph /  18.5 km/h 78 % 0.00 in /  0 mm
15:41 43.7 °F /  6.5 °C 37.3 °F /  2.9 °C 29.82 in /  1009.7 hPa NE 6.5 mph /  10.5 km/h 10.4 mph /  16.7 km/h 78 % 0.00 in /  0 mm
15:46 43.6 °F /  6.4 °C 37.2 °F /  2.9 °C 29.83 in /  1010 hPa North 7.0 mph /  11.3 km/h 10.4 mph /  16.7 km/h 78 % 0.00 in /  0 mm
15:51 43.7 °F /  6.5 °C 37.3 °F /  2.9 °C 29.83 in /  1010 hPa NNE 6.6 mph /  10.6 km/h 11.5 mph /  18.5 km/h 78 % 0.00 in /  0 mm
15:56 43.7 °F /  6.5 °C 37.6 °F /  3.1 °C 29.83 in /  1010 hPa NNE 8.3 mph /  13.4 km/h 13.8 mph /  22.2 km/h 79 % 0.00 in /  0 mm
16:01 43.7 °F /  6.5 °C 37.3 °F /  2.9 °C 29.83 in /  1010 hPa NNE 9.8 mph /  15.8 km/h 16.1 mph /  25.9 km/h 78 % 0.00 in /  0 mm
16:06 43.7 °F /  6.5 °C 37.6 °F /  3.1 °C 29.84 in /  1010.4 hPa NNW 5.5 mph /  8.9 km/h 9.2 mph /  14.8 km/h 79 % 0.00 in /  0 mm
16:11 43.6 °F /  6.4 °C 37.5 °F /  3.1 °C 29.84 in /  1010.4 hPa North 6.9 mph /  11.1 km/h 11.5 mph /  18.5 km/h 79 % 0.00 in /  0 mm
16:16 43.5 °F /  6.4 °C 37.4 °F /  3 °C 29.84 in /  1010.4 hPa North 6.8 mph /  10.9 km/h 12.7 mph /  20.4 km/h 79 % 0.00 in /  0 mm
16:21 43.4 °F /  6.3 °C 37.3 °F /  2.9 °C 29.85 in /  1010.7 hPa NNE 7.0 mph /  11.3 km/h 11.5 mph /  18.5 km/h 79 % 0.00 in /  0 mm
16:26 43.4 °F /  6.3 °C 37.6 °F /  3.1 °C 29.84 in /  1010.4 hPa NNE 4.4 mph /  7.1 km/h 6.9 mph /  11.1 km/h 80 % 0.00 in /  0 mm
16:31 43.4 °F /  6.3 °C 37.6 °F /  3.1 °C 29.85 in /  1010.7 hPa North 5.7 mph /  9.2 km/h 8.1 mph /  13 km/h 80 % 0.00 in /  0 mm
16:36 43.4 °F /  6.3 °C 38.0 °F /  3.3 °C 29.85 in /  1010.7 hPa NNW 3.7 mph /  6 km/h 9.2 mph /  14.8 km/h 81 % 0.00 in /  0 mm
16:41 43.3 °F /  6.3 °C 38.2 °F /  3.4 °C 29.86 in /  1011.1 hPa NNE 4.5 mph /  7.2 km/h 6.0 mph /  9.7 km/h 82 % 0.00 in /  0 mm
16:46 43.3 °F /  6.3 °C 38.5 °F /  3.6 °C 29.86 in /  1011.1 hPa North 6.1 mph /  9.8 km/h 9.0 mph /  14.5 km/h 83 % 0.00 in /  0 mm
16:51 43.2 °F /  6.2 °C 38.4 °F /  3.6 °C 29.86 in /  1011.1 hPa North 5.6 mph /  9 km/h 8.1 mph /  13 km/h 83 % 0.01 in /  0.25 mm
16:56 43.2 °F /  6.2 °C 38.4 °F /  3.6 °C 29.86 in /  1011.1 hPa NE 6.0 mph /  9.7 km/h 10.4 mph /  16.7 km/h 83 % 0.01 in /  0.25 mm
17:01 43.1 °F /  6.2 °C 38.3 °F /  3.5 °C 29.86 in /  1011.1 hPa NNW 5.8 mph /  9.3 km/h 9.2 mph /  14.8 km/h 83 % 0.01 in /  0.25 mm
17:06 43.2 °F /  6.2 °C 38.4 °F /  3.6 °C 29.86 in /  1011.1 hPa North 5.9 mph /  9.5 km/h 11.5 mph /  18.5 km/h 83 % 0.01 in /  0.25 mm
17:11 43.1 °F /  6.2 °C 38.3 °F /  3.5 °C 29.87 in /  1011.4 hPa NE 7.6 mph /  12.2 km/h 10.4 mph /  16.7 km/h 83 % 0.01 in /  0.25 mm
17:16 43.1 °F /  6.2 °C 38.3 °F /  3.5 °C 29.87 in /  1011.4 hPa NNE 8.5 mph /  13.7 km/h 11.5 mph /  18.5 km/h 83 % 0.01 in /  0.25 mm
17:21 43.0 °F /  6.1 °C 38.2 °F /  3.4 °C 29.87 in /  1011.4 hPa NE 4.5 mph /  7.2 km/h 5.8 mph /  9.3 km/h 83 % 0.01 in /  0.25 mm
17:26 43.0 °F /  6.1 °C 38.2 °F /  3.4 °C 29.87 in /  1011.4 hPa North 4.4 mph /  7.1 km/h 5.8 mph /  9.3 km/h 83 % 0.01 in /  0.25 mm
17:31 43.0 °F /  6.1 °C 38.2 °F /  3.4 °C 29.88 in /  1011.7 hPa North 5.4 mph /  8.7 km/h 6.9 mph /  11.1 km/h 83 % 0.01 in /  0.25 mm
17:36 43.0 °F /  6.1 °C 38.2 °F /  3.4 °C 29.88 in /  1011.7 hPa NNW 5.7 mph /  9.2 km/h 9.2 mph /  14.8 km/h 83 % 0.01 in /  0.25 mm
17:41 43.0 °F /  6.1 °C 38.2 °F /  3.4 °C 29.89 in /  1012.1 hPa North 5.1 mph /  8.2 km/h 8.1 mph /  13 km/h 83 % 0.01 in /  0.25 mm
17:46 43.0 °F /  6.1 °C 38.2 °F /  3.4 °C 29.89 in /  1012.1 hPa North 3.6 mph /  5.8 km/h 8.1 mph /  13 km/h 83 % 0.01 in /  0.25 mm
17:51 42.9 °F /  6.1 °C 38.1 °F /  3.4 °C 29.89 in /  1012.1 hPa North 4.7 mph /  7.6 km/h 8.1 mph /  13 km/h 83 % 0.00 in /  0 mm
17:57 42.9 °F /  6.1 °C 38.1 °F /  3.4 °C 29.89 in /  1012.1 hPa NNE 4.3 mph /  6.9 km/h 9.2 mph /  14.8 km/h 83 % 0.00 in /  0 mm
18:02 42.9 °F /  6.1 °C 38.1 °F /  3.4 °C 29.90 in /  1012.4 hPa NNE 5.5 mph /  8.9 km/h 10.4 mph /  16.7 km/h 83 % 0.00 in /  0 mm
18:07 42.8 °F /  6 °C 38.0 °F /  3.3 °C 29.90 in /  1012.4 hPa NE 6.4 mph /  10.3 km/h 11.5 mph /  18.5 km/h 83 % 0.00 in /  0 mm
18:12 42.8 °F /  6 °C 38.0 °F /  3.3 °C 29.90 in /  1012.4 hPa NNE 4.6 mph /  7.4 km/h 8.1 mph /  13 km/h 83 % 0.01 in /  0.25 mm
18:17 42.8 °F /  6 °C 38.0 °F /  3.3 °C 29.91 in /  1012.8 hPa NNE 6.0 mph /  9.7 km/h 9.0 mph /  14.5 km/h 83 % 0.00 in /  0 mm
18:22 42.8 °F /  6 °C 38.0 °F /  3.3 °C 29.91 in /  1012.8 hPa North 3.0 mph /  4.8 km/h 9.0 mph /  14.5 km/h 83 % 0.00 in /  0 mm
18:27 42.7 °F /  5.9 °C 38.2 °F /  3.4 °C 29.92 in /  1013.1 hPa North 2.0 mph /  3.2 km/h 7.0 mph /  11.3 km/h 84 % 0.00 in /  0 mm
18:32 42.6 °F /  5.9 °C 38.1 °F /  3.4 °C 29.92 in /  1013.1 hPa North 6.0 mph /  9.7 km/h 8.0 mph /  12.9 km/h 84 % 0.00 in /  0 mm
18:37 42.5 °F /  5.8 °C 38.0 °F /  3.3 °C 29.92 in /  1013.1 hPa North 7.0 mph /  11.3 km/h 12.0 mph /  19.3 km/h 84 % 0.00 in /  0 mm
18:42 42.4 °F /  5.8 °C 37.9 °F /  3.3 °C 29.92 in /  1013.1 hPa NNE 5.0 mph /  8 km/h 13.0 mph /  20.9 km/h 84 % 0.00 in /  0 mm
18:47 42.4 °F /  5.8 °C 38.2 °F /  3.4 °C 29.92 in /  1013.1 hPa North 4.9 mph /  7.9 km/h 9.2 mph /  14.8 km/h 85 % 0.01 in /  0.25 mm
18:52 42.3 °F /  5.7 °C 38.1 °F /  3.4 °C 29.92 in /  1013.1 hPa North 6.0 mph /  9.7 km/h 9.0 mph /  14.5 km/h 85 % 0.00 in /  0 mm
18:57 42.2 °F /  5.7 °C 38.0 °F /  3.3 °C 29.93 in /  1013.4 hPa NNE 7.3 mph /  11.7 km/h 10.4 mph /  16.7 km/h 85 % 0.01 in /  0.25 mm
19:03 42.1 °F /  5.6 °C 37.9 °F /  3.3 °C 29.92 in /  1013.1 hPa North 5.5 mph /  8.9 km/h 9.2 mph /  14.8 km/h 85 % 0.02 in /  0.51 mm
19:08 42.0 °F /  5.6 °C 37.8 °F /  3.2 °C 29.93 in /  1013.4 hPa NNE 5.2 mph /  8.4 km/h 8.0 mph /  12.9 km/h 85 % 0.02 in /  0.51 mm
19:13 42.0 °F /  5.6 °C 37.8 °F /  3.2 °C 29.94 in /  1013.8 hPa NNE 4.0 mph /  6.4 km/h 8.1 mph /  13 km/h 85 % 0.01 in /  0.25 mm
19:18 42.0 °F /  5.6 °C 37.8 °F /  3.2 °C 29.94 in /  1013.8 hPa NNE 4.9 mph /  7.9 km/h 6.9 mph /  11.1 km/h 85 % 0.01 in /  0.25 mm
19:23 42.0 °F /  5.6 °C 37.8 °F /  3.2 °C 29.94 in /  1013.8 hPa NNE 4.9 mph /  7.9 km/h 8.1 mph /  13 km/h 85 % 0.01 in /  0.25 mm
19:28 42.0 °F /  5.6 °C 37.8 °F /  3.2 °C 29.94 in /  1013.8 hPa NNE 5.0 mph /  8 km/h 8.1 mph /  13 km/h 85 % 0.01 in /  0.25 mm
19:33 42.0 °F /  5.6 °C 37.8 °F /  3.2 °C 29.94 in /  1013.8 hPa North 7.0 mph /  11.3 km/h 10.4 mph /  16.7 km/h 85 % 0.01 in /  0.25 mm
19:38 42.0 °F /  5.6 °C 37.8 °F /  3.2 °C 29.95 in /  1014.1 hPa North 4.7 mph /  7.6 km/h 8.1 mph /  13 km/h 85 % 0.01 in /  0.25 mm
19:43 42.1 °F /  5.6 °C 37.9 °F /  3.3 °C 29.96 in /  1014.4 hPa NNE 5.3 mph /  8.5 km/h 8.1 mph /  13 km/h 85 % 0.01 in /  0.25 mm
19:48 42.0 °F /  5.6 °C 37.8 °F /  3.2 °C 29.95 in /  1014.1 hPa North 4.9 mph /  7.9 km/h 7.0 mph /  11.3 km/h 85 % 0.01 in /  0.25 mm
19:53 42.0 °F /  5.6 °C 37.8 °F /  3.2 °C 29.96 in /  1014.4 hPa NNE 3.6 mph /  5.8 km/h 5.8 mph /  9.3 km/h 85 % 0.01 in /  0.25 mm
19:58 42.0 °F /  5.6 °C 38.1 °F /  3.4 °C 29.96 in /  1014.4 hPa North 4.8 mph /  7.7 km/h 6.0 mph /  9.7 km/h 86 % 0.02 in /  0.51 mm
20:03 42.0 °F /  5.6 °C 38.1 °F /  3.4 °C 29.96 in /  1014.4 hPa ENE 3.7 mph /  6 km/h 7.0 mph /  11.3 km/h 86 % 0.01 in /  0.25 mm
20:08 42.0 °F /  5.6 °C 38.1 °F /  3.4 °C 29.96 in /  1014.4 hPa NNE 4.2 mph /  6.8 km/h 7.0 mph /  11.3 km/h 86 % 0.01 in /  0.25 mm
20:13 41.9 °F /  5.5 °C 38.0 °F /  3.3 °C 29.96 in /  1014.4 hPa NE 6.4 mph /  10.3 km/h 8.1 mph /  13 km/h 86 % 0.01 in /  0.25 mm
20:18 41.9 °F /  5.5 °C 38.0 °F /  3.3 °C 29.96 in /  1014.4 hPa NNE 6.1 mph /  9.8 km/h 10.4 mph /  16.7 km/h 86 % 0.01 in /  0.25 mm
20:23 41.9 °F /  5.5 °C 38.0 °F /  3.3 °C 29.96 in /  1014.4 hPa NNE 6.3 mph /  10.1 km/h 10.0 mph /  16.1 km/h 86 % 0.01 in /  0.25 mm
20:28 41.8 °F /  5.4 °C 37.9 °F /  3.3 °C 29.97 in /  1014.8 hPa NE 4.4 mph /  7.1 km/h 5.8 mph /  9.3 km/h 86 % 0.01 in /  0.25 mm
20:33 41.8 °F /  5.4 °C 37.9 °F /  3.3 °C 29.96 in /  1014.4 hPa NNE 4.6 mph /  7.4 km/h 7.0 mph /  11.3 km/h 86 % 0.02 in /  0.51 mm
20:38 41.8 °F /  5.4 °C 37.9 °F /  3.3 °C 29.96 in /  1014.4 hPa NNE 5.7 mph /  9.2 km/h 9.2 mph /  14.8 km/h 86 % 0.02 in /  0.51 mm
20:43 41.7 °F /  5.4 °C 37.8 °F /  3.2 °C 29.96 in /  1014.4 hPa North 3.7 mph /  6 km/h 5.8 mph /  9.3 km/h 86 % 0.02 in /  0.51 mm
20:48 41.7 °F /  5.4 °C 37.8 °F /  3.2 °C 29.96 in /  1014.4 hPa NNE 3.0 mph /  4.8 km/h 8.1 mph /  13 km/h 86 % 0.02 in /  0.51 mm
20:53 41.6 °F /  5.3 °C 38.0 °F /  3.3 °C 29.97 in /  1014.8 hPa NNE 2.2 mph /  3.5 km/h 5.8 mph /  9.3 km/h 87 % 0.02 in /  0.51 mm
20:58 41.6 °F /  5.3 °C 38.0 °F /  3.3 °C 29.97 in /  1014.8 hPa North 3.0 mph /  4.8 km/h 5.0 mph /  8 km/h 87 % 0.01 in /  0.25 mm
21:03 41.5 °F /  5.3 °C 37.9 °F /  3.3 °C 29.97 in /  1014.8 hPa NNE 2.6 mph /  4.2 km/h 3.5 mph /  5.6 km/h 87 % 0.01 in /  0.25 mm
21:08 41.5 °F /  5.3 °C 37.9 °F /  3.3 °C 29.97 in /  1014.8 hPa North 2.6 mph /  4.2 km/h 3.5 mph /  5.6 km/h 87 % 0.01 in /  0.25 mm
21:13 41.4 °F /  5.2 °C 37.8 °F /  3.2 °C 29.97 in /  1014.8 hPa NNE 0.9 mph /  1.4 km/h 3.5 mph /  5.6 km/h 87 % 0.01 in /  0.25 mm
21:18 41.3 °F /  5.2 °C 37.7 °F /  3.2 °C 29.96 in /  1014.4 hPa NNE 1.5 mph /  2.4 km/h 3.5 mph /  5.6 km/h 87 % 0.01 in /  0.25 mm
21:23 41.3 °F /  5.2 °C 37.7 °F /  3.2 °C 29.96 in /  1014.4 hPa North 1.9 mph /  3.1 km/h 3.5 mph /  5.6 km/h 87 % 0.01 in /  0.25 mm
21:28 41.2 °F /  5.1 °C 37.6 °F /  3.1 °C 29.97 in /  1014.8 hPa North 1.4 mph /  2.3 km/h 4.6 mph /  7.4 km/h 87 % 0.02 in /  0.51 mm
21:33 41.1 °F /  5.1 °C 37.5 °F /  3.1 °C 29.97 in /  1014.8 hPa North 2.0 mph /  3.2 km/h 3.5 mph /  5.6 km/h 87 % 0.01 in /  0.25 mm
21:38 41.1 °F /  5.1 °C 37.5 °F /  3.1 °C 29.97 in /  1014.8 hPa North 3.2 mph /  5.1 km/h 5.0 mph /  8 km/h 87 % 0.01 in /  0.25 mm
21:43 41.1 °F /  5.1 °C 37.5 °F /  3.1 °C 29.97 in /  1014.8 hPa NNE 1.5 mph /  2.4 km/h 3.5 mph /  5.6 km/h 87 % 0.01 in /  0.25 mm
21:48 41.1 °F /  5.1 °C 37.5 °F /  3.1 °C 29.98 in /  1015.1 hPa North 3.1 mph /  5 km/h 4.0 mph /  6.4 km/h 87 % 0.01 in /  0.25 mm
21:53 41.1 °F /  5.1 °C 37.5 °F /  3.1 °C 29.98 in /  1015.1 hPa NNW 2.4 mph /  3.9 km/h 3.5 mph /  5.6 km/h 87 % 0.01 in /  0.25 mm
21:58 41.1 °F /  5.1 °C 37.2 °F /  2.9 °C 29.98 in /  1015.1 hPa NNW 2.6 mph /  4.2 km/h 3.5 mph /  5.6 km/h 86 % 0.01 in /  0.25 mm
22:03 41.1 °F /  5.1 °C 37.2 °F /  2.9 °C 29.98 in /  1015.1 hPa NNW 1.2 mph /  1.9 km/h 4.6 mph /  7.4 km/h 86 % 0.01 in /  0.25 mm
22:08 41.1 °F /  5.1 °C 37.2 °F /  2.9 °C 29.98 in /  1015.1 hPa NNW 3.3 mph /  5.3 km/h 4.6 mph /  7.4 km/h 86 % 0.02 in /  0.51 mm
22:13 41.1 °F /  5.1 °C 37.2 °F /  2.9 °C 29.99 in /  1015.5 hPa NNW 1.0 mph /  1.6 km/h 3.5 mph /  5.6 km/h 86 % 0.02 in /  0.51 mm
22:18 41.1 °F /  5.1 °C 37.2 °F /  2.9 °C 29.99 in /  1015.5 hPa NNW 3.9 mph /  6.3 km/h 4.6 mph /  7.4 km/h 86 % 0.02 in /  0.51 mm
22:23 41.1 °F /  5.1 °C 37.2 °F /  2.9 °C 29.99 in /  1015.5 hPa NNE 1.9 mph /  3.1 km/h 3.5 mph /  5.6 km/h 86 % 0.02 in /  0.51 mm
22:28 41.2 °F /  5.1 °C 37.3 °F /  2.9 °C 29.99 in /  1015.5 hPa NNW 3.0 mph /  4.8 km/h 5.0 mph /  8 km/h 86 % 0.01 in /  0.25 mm
22:33 41.2 °F /  5.1 °C 37.0 °F /  2.8 °C 29.99 in /  1015.5 hPa NNE 2.3 mph /  3.7 km/h 5.8 mph /  9.3 km/h 85 % 0.01 in /  0.25 mm
22:38 41.3 °F /  5.2 °C 37.1 °F /  2.8 °C 29.99 in /  1015.5 hPa NE 3.1 mph /  5 km/h 5.8 mph /  9.3 km/h 85 % 0.01 in /  0.25 mm
22:43 41.3 °F /  5.2 °C 37.1 °F /  2.8 °C 29.99 in /  1015.5 hPa NNE 3.3 mph /  5.3 km/h 6.9 mph /  11.1 km/h 85 % 0.01 in /  0.25 mm
22:48 41.3 °F /  5.2 °C 37.1 °F /  2.8 °C 29.99 in /  1015.5 hPa North 2.4 mph /  3.9 km/h 5.8 mph /  9.3 km/h 85 % 0.01 in /  0.25 mm
22:54 41.4 °F /  5.2 °C 37.2 °F /  2.9 °C 29.99 in /  1015.5 hPa North 3.8 mph /  6.1 km/h 5.8 mph /  9.3 km/h 85 % 0.01 in /  0.25 mm
22:59 41.4 °F /  5.2 °C 37.2 °F /  2.9 °C 30.00 in /  1015.8 hPa North 3.3 mph /  5.3 km/h 4.6 mph /  7.4 km/h 85 % 0.01 in /  0.25 mm
23:04 41.4 °F /  5.2 °C 37.2 °F /  2.9 °C 30.00 in /  1015.8 hPa NNE 2.3 mph /  3.7 km/h 4.0 mph /  6.4 km/h 85 % 0.02 in /  0.51 mm
23:09 41.5 °F /  5.3 °C 37.3 °F /  2.9 °C 30.00 in /  1015.8 hPa North 1.5 mph /  2.4 km/h 3.5 mph /  5.6 km/h 85 % 0.01 in /  0.25 mm
23:14 41.5 °F /  5.3 °C 37.3 °F /  2.9 °C 30.00 in /  1015.8 hPa North 2.8 mph /  4.5 km/h 4.6 mph /  7.4 km/h 85 % 0.01 in /  0.25 mm
23:19 41.5 °F /  5.3 °C 37.3 °F /  2.9 °C 30.00 in /  1015.8 hPa North 2.3 mph /  3.7 km/h 3.5 mph /  5.6 km/h 85 % 0.01 in /  0.25 mm
23:24 41.5 °F /  5.3 °C 37.3 °F /  2.9 °C 30.00 in /  1015.8 hPa NNE 2.1 mph /  3.4 km/h 3.5 mph /  5.6 km/h 85 % 0.01 in /  0.25 mm
23:29 41.5 °F /  5.3 °C 37.3 °F /  2.9 °C 30.00 in /  1015.8 hPa North 1.4 mph /  2.3 km/h 3.5 mph /  5.6 km/h 85 % 0.01 in /  0.25 mm
23:34 41.5 °F /  5.3 °C 37.3 °F /  2.9 °C 30.00 in /  1015.8 hPa North 0.7 mph /  1.1 km/h 1.2 mph /  1.9 km/h 85 % 0.01 in /  0.25 mm
23:39 41.5 °F /  5.3 °C 37.3 °F /  2.9 °C 30.00 in /  1015.8 hPa North 0.1 mph /  0.2 km/h 1.0 mph /  1.6 km/h 85 % 0.01 in /  0.25 mm
23:44 41.5 °F /  5.3 °C 37.3 °F /  2.9 °C 30.00 in /  1015.8 hPa NNW 1.0 mph /  1.6 km/h 2.3 mph /  3.7 km/h 85 % 0.01 in /  0.25 mm
23:49 41.4 °F /  5.2 °C 37.2 °F /  2.9 °C 30.00 in /  1015.8 hPa NNW 0.7 mph /  1.1 km/h 1.0 mph /  1.6 km/h 85 % 0.01 in /  0.25 mm
23:54 41.4 °F /  5.2 °C 37.2 °F /  2.9 °C 30.00 in /  1015.8 hPa NW 0.1 mph /  0.2 km/h 2.3 mph /  3.7 km/h 85 % 0.02 in /  0.51 mm
23:59 41.4 °F /  5.2 °C 37.5 °F /  3.1 °C 30.00 in /  1015.8 hPa Calm   2.3 mph /  3.7 km/h 86 % 0.02 in /  0.51 mm
Crab Meadow Weather
Compliments of Weather Underground - 3 mb

Script developed by  Jim McMurry - jmcmurry@mwt.net Adapted for the template by  Wim van der Kuil - Leuven-Template.eu

Weather Terms: Flood Stage - The level or stage at which a stream overflows its banks or the stage at which the overflow of a stream begins to cause damage.